sensor_id;sensor_type;location;lat;lon;timestamp;P1;durP1;ratioP1;P2;durP2;ratioP2
8626;SDS011;4351;51.422;6.794;2023-09-19T00:20:37;10.13;;;2.77;;
8626;SDS011;4351;51.422;6.794;2023-09-19T00:23:05;11.20;;;3.50;;
8626;SDS011;4351;51.422;6.794;2023-09-19T00:25:35;18.30;;;4.07;;
8626;SDS011;4351;51.422;6.794;2023-09-19T00:28:04;10.77;;;3.37;;
8626;SDS011;4351;51.422;6.794;2023-09-19T00:30:33;12.97;;;3.80;;
8626;SDS011;4351;51.422;6.794;2023-09-19T00:33:01;14.27;;;3.97;;
8626;SDS011;4351;51.422;6.794;2023-09-19T00:35:33;11.03;;;4.00;;
8626;SDS011;4351;51.422;6.794;2023-09-19T00:38:02;15.23;;;3.23;;
8626;SDS011;4351;51.422;6.794;2023-09-19T00:40:30;12.20;;;3.10;;
8626;SDS011;4351;51.422;6.794;2023-09-19T00:42:59;10.03;;;3.43;;
8626;SDS011;4351;51.422;6.794;2023-09-19T00:45:27;10.43;;;3.20;;
8626;SDS011;4351;51.422;6.794;2023-09-19T00:47:55;12.77;;;3.80;;
8626;SDS011;4351;51.422;6.794;2023-09-19T00:50:24;13.77;;;3.83;;
8626;SDS011;4351;51.422;6.794;2023-09-19T00:52:54;15.10;;;3.60;;
8626;SDS011;4351;51.422;6.794;2023-09-19T00:55:25;12.60;;;3.73;;
8626;SDS011;4351;51.422;6.794;2023-09-19T00:57:55;12.27;;;4.50;;
8626;SDS011;4351;51.422;6.794;2023-09-19T01:00:23;17.30;;;4.47;;
8626;SDS011;4351;51.422;6.794;2023-09-19T01:02:51;12.53;;;3.57;;
8626;SDS011;4351;51.422;6.794;2023-09-19T01:05:19;11.23;;;4.00;;
8626;SDS011;4351;51.422;6.794;2023-09-19T01:07:46;11.57;;;3.10;;
8626;SDS011;4351;51.422;6.794;2023-09-19T01:10:16;15.43;;;3.73;;
8626;SDS011;4351;51.422;6.794;2023-09-19T01:13:00;12.20;;;3.43;;
8626;SDS011;4351;51.422;6.794;2023-09-19T01:15:35;13.43;;;3.37;;
8626;SDS011;4351;51.422;6.794;2023-09-19T01:18:10;10.10;;;3.13;;
8626;SDS011;4351;51.422;6.794;2023-09-19T01:20:39;14.27;;;3.47;;
8626;SDS011;4351;51.422;6.794;2023-09-19T01:23:11;11.60;;;3.13;;
8626;SDS011;4351;51.422;6.794;2023-09-19T01:31:09;7.77;;;2.30;;
8626;SDS011;4351;51.422;6.794;2023-09-19T01:33:56;9.83;;;2.50;;
8626;SDS011;4351;51.422;6.794;2023-09-19T01:36:29;9.57;;;2.20;;
8626;SDS011;4351;51.422;6.794;2023-09-19T01:38:59;6.10;;;2.20;;
8626;SDS011;4351;51.422;6.794;2023-09-19T01:44:19;10.57;;;2.57;;
8626;SDS011;4351;51.422;6.794;2023-09-19T01:46:50;8.27;;;2.40;;
8626;SDS011;4351;51.422;6.794;2023-09-19T01:49:22;6.90;;;2.47;;
8626;SDS011;4351;51.422;6.794;2023-09-19T01:51:56;9.50;;;2.60;;
8626;SDS011;4351;51.422;6.794;2023-09-19T01:54:26;11.30;;;2.63;;
8626;SDS011;4351;51.422;6.794;2023-09-19T01:56:57;8.57;;;2.13;;
8626;SDS011;4351;51.422;6.794;2023-09-19T01:59:34;9.97;;;2.57;;
8626;SDS011;4351;51.422;6.794;2023-09-19T02:02:04;10.97;;;2.47;;
8626;SDS011;4351;51.422;6.794;2023-09-19T02:04:34;7.80;;;2.10;;
8626;SDS011;4351;51.422;6.794;2023-09-19T02:07:02;6.63;;;2.13;;
8626;SDS011;4351;51.422;6.794;2023-09-19T02:09:32;9.80;;;2.30;;
8626;SDS011;4351;51.422;6.794;2023-09-19T02:12:01;7.77;;;2.10;;
8626;SDS011;4351;51.422;6.794;2023-09-19T02:14:31;10.63;;;2.23;;
8626;SDS011;4351;51.422;6.794;2023-09-19T02:16:59;12.83;;;2.70;;
8626;SDS011;4351;51.422;6.794;2023-09-19T02:19:28;11.37;;;2.27;;
8626;SDS011;4351;51.422;6.794;2023-09-19T02:21:58;11.33;;;2.27;;
8626;SDS011;4351;51.422;6.794;2023-09-19T02:24:26;6.87;;;2.20;;
8626;SDS011;4351;51.422;6.794;2023-09-19T02:26:54;7.77;;;2.37;;
8626;SDS011;4351;51.422;6.794;2023-09-19T02:29:24;7.57;;;2.33;;
8626;SDS011;4351;51.422;6.794;2023-09-19T02:31:53;8.40;;;2.20;;
8626;SDS011;4351;51.422;6.794;2023-09-19T02:34:22;9.37;;;2.40;;
8626;SDS011;4351;51.422;6.794;2023-09-19T02:36:53;11.97;;;2.33;;
8626;SDS011;4351;51.422;6.794;2023-09-19T02:39:22;10.97;;;2.50;;
8626;SDS011;4351;51.422;6.794;2023-09-19T02:41:50;7.97;;;2.13;;
8626;SDS011;4351;51.422;6.794;2023-09-19T02:44:18;10.63;;;2.80;;
8626;SDS011;4351;51.422;6.794;2023-09-19T02:46:46;9.67;;;2.33;;
8626;SDS011;4351;51.422;6.794;2023-09-19T02:49:15;7.67;;;2.13;;
8626;SDS011;4351;51.422;6.794;2023-09-19T02:51:44;10.47;;;2.43;;
8626;SDS011;4351;51.422;6.794;2023-09-19T02:54:13;11.77;;;2.10;;
8626;SDS011;4351;51.422;6.794;2023-09-19T02:56:42;8.37;;;2.07;;
8626;SDS011;4351;51.422;6.794;2023-09-19T02:59:09;9.33;;;2.40;;
8626;SDS011;4351;51.422;6.794;2023-09-19T03:01:37;9.53;;;2.13;;
8626;SDS011;4351;51.422;6.794;2023-09-19T03:04:05;9.07;;;2.50;;
8626;SDS011;4351;51.422;6.794;2023-09-19T03:06:36;7.27;;;1.90;;
8626;SDS011;4351;51.422;6.794;2023-09-19T03:09:04;12.20;;;2.63;;
8626;SDS011;4351;51.422;6.794;2023-09-19T03:11:41;9.53;;;2.23;;
8626;SDS011;4351;51.422;6.794;2023-09-19T03:14:10;8.07;;;2.17;;
8626;SDS011;4351;51.422;6.794;2023-09-19T03:16:39;10.77;;;2.33;;
8626;SDS011;4351;51.422;6.794;2023-09-19T03:19:09;9.60;;;2.43;;
8626;SDS011;4351;51.422;6.794;2023-09-19T03:21:38;6.93;;;2.07;;
8626;SDS011;4351;51.422;6.794;2023-09-19T03:24:06;9.77;;;2.07;;
8626;SDS011;4351;51.422;6.794;2023-09-19T03:26:34;9.00;;;2.27;;
8626;SDS011;4351;51.422;6.794;2023-09-19T03:29:04;9.43;;;2.43;;
8626;SDS011;4351;51.422;6.794;2023-09-19T03:31:35;7.83;;;2.53;;
8626;SDS011;4351;51.422;6.794;2023-09-19T03:34:06;5.47;;;2.70;;
8626;SDS011;4351;51.422;6.794;2023-09-19T03:36:34;12.87;;;2.40;;
8626;SDS011;4351;51.422;6.794;2023-09-19T03:39:02;9.63;;;2.53;;
8626;SDS011;4351;51.422;6.794;2023-09-19T03:41:31;10.17;;;2.60;;
8626;SDS011;4351;51.422;6.794;2023-09-19T03:44:00;12.27;;;2.87;;
8626;SDS011;4351;51.422;6.794;2023-09-19T03:46:29;8.13;;;2.53;;
8626;SDS011;4351;51.422;6.794;2023-09-19T03:48:59;8.63;;;2.90;;
8626;SDS011;4351;51.422;6.794;2023-09-19T03:51:27;12.67;;;2.90;;
8626;SDS011;4351;51.422;6.794;2023-09-19T03:53:54;9.43;;;2.50;;
8626;SDS011;4351;51.422;6.794;2023-09-19T03:56:22;8.83;;;2.60;;
8626;SDS011;4351;51.422;6.794;2023-09-19T03:58:50;10.83;;;2.63;;
8626;SDS011;4351;51.422;6.794;2023-09-19T04:01:18;6.70;;;2.60;;
8626;SDS011;4351;51.422;6.794;2023-09-19T04:03:48;11.27;;;2.80;;
8626;SDS011;4351;51.422;6.794;2023-09-19T04:06:18;12.80;;;3.10;;
8626;SDS011;4351;51.422;6.794;2023-09-19T04:08:46;14.90;;;3.70;;
8626;SDS011;4351;51.422;6.794;2023-09-19T04:11:14;15.27;;;3.23;;
8626;SDS011;4351;51.422;6.794;2023-09-19T04:13:41;16.03;;;3.70;;
8626;SDS011;4351;51.422;6.794;2023-09-19T04:16:09;11.33;;;4.10;;
8626;SDS011;4351;51.422;6.794;2023-09-19T04:18:38;13.50;;;4.20;;
8626;SDS011;4351;51.422;6.794;2023-09-19T04:21:08;13.30;;;4.33;;
8626;SDS011;4351;51.422;6.794;2023-09-19T04:23:36;9.87;;;3.53;;
8626;SDS011;4351;51.422;6.794;2023-09-19T04:26:04;11.93;;;3.00;;
8626;SDS011;4351;51.422;6.794;2023-09-19T04:28:34;11.50;;;2.73;;
8626;SDS011;4351;51.422;6.794;2023-09-19T04:31:05;12.60;;;3.20;;
8626;SDS011;4351;51.422;6.794;2023-09-19T04:33:34;12.27;;;2.83;;
8626;SDS011;4351;51.422;6.794;2023-09-19T04:36:02;8.47;;;2.77;;
8626;SDS011;4351;51.422;6.794;2023-09-19T04:38:53;11.40;;;2.70;;
8626;SDS011;4351;51.422;6.794;2023-09-19T04:41:20;10.73;;;3.63;;
8626;SDS011;4351;51.422;6.794;2023-09-19T04:43:48;12.03;;;2.87;;
8626;SDS011;4351;51.422;6.794;2023-09-19T04:46:17;9.57;;;2.70;;
8626;SDS011;4351;51.422;6.794;2023-09-19T04:48:45;9.97;;;2.80;;
8626;SDS011;4351;51.422;6.794;2023-09-19T04:51:13;9.27;;;2.70;;
8626;SDS011;4351;51.422;6.794;2023-09-19T04:53:41;10.87;;;2.50;;
8626;SDS011;4351;51.422;6.794;2023-09-19T04:56:11;9.97;;;2.50;;
8626;SDS011;4351;51.422;6.794;2023-09-19T04:58:39;11.47;;;2.80;;
8626;SDS011;4351;51.422;6.794;2023-09-19T05:01:07;10.30;;;3.17;;
8626;SDS011;4351;51.422;6.794;2023-09-19T05:03:37;7.60;;;2.23;;
8626;SDS011;4351;51.422;6.794;2023-09-19T05:06:05;8.00;;;2.40;;
8626;SDS011;4351;51.422;6.794;2023-09-19T05:08:33;7.33;;;2.17;;
8626;SDS011;4351;51.422;6.794;2023-09-19T05:11:01;10.17;;;2.20;;
8626;SDS011;4351;51.422;6.794;2023-09-19T05:13:30;11.37;;;3.00;;
8626;SDS011;4351;51.422;6.794;2023-09-19T05:15:59;10.80;;;2.57;;
8626;SDS011;4351;51.422;6.794;2023-09-19T05:18:27;12.67;;;3.10;;
8626;SDS011;4351;51.422;6.794;2023-09-19T05:20:55;6.83;;;2.63;;
8626;SDS011;4351;51.422;6.794;2023-09-19T05:23:23;12.57;;;3.23;;
8626;SDS011;4351;51.422;6.794;2023-09-19T05:25:50;16.30;;;3.30;;
8626;SDS011;4351;51.422;6.794;2023-09-19T05:28:18;16.20;;;3.73;;
8626;SDS011;4351;51.422;6.794;2023-09-19T05:30:47;16.30;;;3.20;;
8626;SDS011;4351;51.422;6.794;2023-09-19T05:33:15;12.73;;;3.30;;
8626;SDS011;4351;51.422;6.794;2023-09-19T05:35:44;10.67;;;3.13;;
8626;SDS011;4351;51.422;6.794;2023-09-19T05:38:13;12.07;;;3.40;;
8626;SDS011;4351;51.422;6.794;2023-09-19T05:40:45;9.63;;;3.27;;
8626;SDS011;4351;51.422;6.794;2023-09-19T05:43:13;13.00;;;3.33;;
8626;SDS011;4351;51.422;6.794;2023-09-19T05:45:41;15.57;;;3.40;;
8626;SDS011;4351;51.422;6.794;2023-09-19T05:48:11;8.03;;;2.70;;
8626;SDS011;4351;51.422;6.794;2023-09-19T05:50:39;11.90;;;3.00;;
8626;SDS011;4351;51.422;6.794;2023-09-19T05:53:07;10.37;;;2.90;;
8626;SDS011;4351;51.422;6.794;2023-09-19T05:55:41;12.07;;;2.43;;
8626;SDS011;4351;51.422;6.794;2023-09-19T05:58:09;8.77;;;2.57;;
8626;SDS011;4351;51.422;6.794;2023-09-19T06:00:40;10.93;;;2.47;;
8626;SDS011;4351;51.422;6.794;2023-09-19T06:03:12;8.90;;;2.37;;
8626;SDS011;4351;51.422;6.794;2023-09-19T06:05:40;9.67;;;2.70;;
8626;SDS011;4351;51.422;6.794;2023-09-19T06:08:08;14.23;;;2.40;;
8626;SDS011;4351;51.422;6.794;2023-09-19T06:10:36;8.93;;;2.33;;
8626;SDS011;4351;51.422;6.794;2023-09-19T06:13:04;9.10;;;2.63;;
8626;SDS011;4351;51.422;6.794;2023-09-19T06:15:32;9.13;;;2.57;;
8626;SDS011;4351;51.422;6.794;2023-09-19T06:18:03;12.83;;;2.53;;
8626;SDS011;4351;51.422;6.794;2023-09-19T06:20:33;13.53;;;2.43;;
8626;SDS011;4351;51.422;6.794;2023-09-19T06:23:01;10.10;;;2.50;;
8626;SDS011;4351;51.422;6.794;2023-09-19T06:25:30;10.73;;;2.67;;
8626;SDS011;4351;51.422;6.794;2023-09-19T06:27:58;11.50;;;3.10;;
8626;SDS011;4351;51.422;6.794;2023-09-19T06:30:25;9.27;;;3.03;;
8626;SDS011;4351;51.422;6.794;2023-09-19T06:32:56;11.87;;;3.27;;
8626;SDS011;4351;51.422;6.794;2023-09-19T06:35:24;9.80;;;3.00;;
8626;SDS011;4351;51.422;6.794;2023-09-19T06:37:54;15.40;;;3.47;;
8626;SDS011;4351;51.422;6.794;2023-09-19T06:40:25;9.37;;;3.00;;
8626;SDS011;4351;51.422;6.794;2023-09-19T06:42:54;11.73;;;2.73;;
8626;SDS011;4351;51.422;6.794;2023-09-19T06:45:22;13.80;;;3.43;;
8626;SDS011;4351;51.422;6.794;2023-09-19T06:47:53;14.47;;;3.33;;
8626;SDS011;4351;51.422;6.794;2023-09-19T06:50:25;13.83;;;3.70;;
8626;SDS011;4351;51.422;6.794;2023-09-19T06:52:56;15.80;;;4.00;;
8626;SDS011;4351;51.422;6.794;2023-09-19T06:55:26;9.97;;;3.50;;
8626;SDS011;4351;51.422;6.794;2023-09-19T06:57:54;11.23;;;3.30;;
8626;SDS011;4351;51.422;6.794;2023-09-19T07:00:22;13.43;;;3.63;;
8626;SDS011;4351;51.422;6.794;2023-09-19T07:02:57;15.30;;;2.93;;
8626;SDS011;4351;51.422;6.794;2023-09-19T07:05:27;8.37;;;2.70;;
8626;SDS011;4351;51.422;6.794;2023-09-19T07:07:57;13.97;;;3.37;;
8626;SDS011;4351;51.422;6.794;2023-09-19T07:10:25;13.13;;;2.97;;
8626;SDS011;4351;51.422;6.794;2023-09-19T07:12:55;13.67;;;3.10;;
8626;SDS011;4351;51.422;6.794;2023-09-19T07:15:22;14.47;;;2.70;;
8626;SDS011;4351;51.422;6.794;2023-09-19T07:17:51;10.67;;;2.40;;
8626;SDS011;4351;51.422;6.794;2023-09-19T07:20:20;14.73;;;2.77;;
8626;SDS011;4351;51.422;6.794;2023-09-19T07:22:48;17.57;;;3.27;;
8626;SDS011;4351;51.422;6.794;2023-09-19T07:25:18;8.47;;;3.07;;
8626;SDS011;4351;51.422;6.794;2023-09-19T07:27:46;11.77;;;3.70;;
8626;SDS011;4351;51.422;6.794;2023-09-19T07:30:14;13.70;;;3.90;;
8626;SDS011;4351;51.422;6.794;2023-09-19T07:32:43;15.03;;;3.60;;
8626;SDS011;4351;51.422;6.794;2023-09-19T07:35:11;9.00;;;2.97;;
8626;SDS011;4351;51.422;6.794;2023-09-19T07:37:39;14.93;;;3.63;;
8626;SDS011;4351;51.422;6.794;2023-09-19T07:40:07;12.53;;;3.17;;
8626;SDS011;4351;51.422;6.794;2023-09-19T07:42:37;13.37;;;3.40;;
8626;SDS011;4351;51.422;6.794;2023-09-19T07:45:07;12.33;;;2.97;;
8626;SDS011;4351;51.422;6.794;2023-09-19T07:47:35;14.47;;;3.40;;
8626;SDS011;4351;51.422;6.794;2023-09-19T07:50:04;14.47;;;3.60;;
8626;SDS011;4351;51.422;6.794;2023-09-19T07:52:34;10.23;;;3.20;;
8626;SDS011;4351;51.422;6.794;2023-09-19T07:55:02;15.83;;;3.57;;
8626;SDS011;4351;51.422;6.794;2023-09-19T07:57:35;17.07;;;3.57;;
8626;SDS011;4351;51.422;6.794;2023-09-19T08:00:06;20.43;;;3.93;;
8626;SDS011;4351;51.422;6.794;2023-09-19T08:02:37;12.70;;;3.33;;
8626;SDS011;4351;51.422;6.794;2023-09-19T08:05:05;14.53;;;3.37;;
8626;SDS011;4351;51.422;6.794;2023-09-19T08:07:36;13.97;;;3.20;;
8626;SDS011;4351;51.422;6.794;2023-09-19T08:10:04;13.40;;;3.23;;
8626;SDS011;4351;51.422;6.794;2023-09-19T08:12:34;13.53;;;2.93;;
8626;SDS011;4351;51.422;6.794;2023-09-19T08:15:02;11.27;;;2.60;;
8626;SDS011;4351;51.422;6.794;2023-09-19T08:17:35;10.83;;;2.90;;
8626;SDS011;4351;51.422;6.794;2023-09-19T08:20:03;13.83;;;3.67;;
8626;SDS011;4351;51.422;6.794;2023-09-19T08:22:31;11.97;;;3.20;;
8626;SDS011;4351;51.422;6.794;2023-09-19T08:24:59;12.83;;;3.33;;
8626;SDS011;4351;51.422;6.794;2023-09-19T08:27:31;10.13;;;2.67;;
8626;SDS011;4351;51.422;6.794;2023-09-19T08:29:58;9.50;;;2.50;;
8626;SDS011;4351;51.422;6.794;2023-09-19T08:32:28;12.87;;;2.70;;
8626;SDS011;4351;51.422;6.794;2023-09-19T08:34:57;14.23;;;2.80;;
8626;SDS011;4351;51.422;6.794;2023-09-19T08:37:24;15.53;;;3.40;;
8626;SDS011;4351;51.422;6.794;2023-09-19T08:39:52;16.40;;;3.67;;
8626;SDS011;4351;51.422;6.794;2023-09-19T08:42:20;10.73;;;3.00;;
8626;SDS011;4351;51.422;6.794;2023-09-19T08:44:51;10.03;;;2.37;;
8626;SDS011;4351;51.422;6.794;2023-09-19T08:47:24;11.03;;;2.57;;
8626;SDS011;4351;51.422;6.794;2023-09-19T08:49:57;10.43;;;2.67;;
8626;SDS011;4351;51.422;6.794;2023-09-19T08:52:31;10.77;;;2.40;;
8626;SDS011;4351;51.422;6.794;2023-09-19T08:55:01;9.83;;;2.67;;
8626;SDS011;4351;51.422;6.794;2023-09-19T08:57:32;7.33;;;2.00;;
8626;SDS011;4351;51.422;6.794;2023-09-19T09:00:02;8.63;;;2.70;;
8626;SDS011;4351;51.422;6.794;2023-09-19T09:02:32;15.37;;;3.50;;
8626;SDS011;4351;51.422;6.794;2023-09-19T09:05:01;14.67;;;3.57;;
8626;SDS011;4351;51.422;6.794;2023-09-19T09:07:31;18.30;;;4.27;;
8626;SDS011;4351;51.422;6.794;2023-09-19T09:10:02;13.90;;;3.30;;
8626;SDS011;4351;51.422;6.794;2023-09-19T09:12:30;15.87;;;3.67;;
8626;SDS011;4351;51.422;6.794;2023-09-19T09:14:58;13.10;;;3.20;;
8626;SDS011;4351;51.422;6.794;2023-09-19T09:17:25;13.63;;;3.37;;
8626;SDS011;4351;51.422;6.794;2023-09-19T09:19:54;14.07;;;2.90;;
8626;SDS011;4351;51.422;6.794;2023-09-19T09:22:23;13.50;;;3.23;;
8626;SDS011;4351;51.422;6.794;2023-09-19T09:24:52;14.07;;;2.73;;
8626;SDS011;4351;51.422;6.794;2023-09-19T09:27:21;16.03;;;3.27;;
8626;SDS011;4351;51.422;6.794;2023-09-19T09:29:50;11.27;;;2.50;;
8626;SDS011;4351;51.422;6.794;2023-09-19T09:32:22;8.53;;;2.40;;
8626;SDS011;4351;51.422;6.794;2023-09-19T09:34:50;10.00;;;2.30;;
8626;SDS011;4351;51.422;6.794;2023-09-19T09:37:18;9.10;;;2.20;;
8626;SDS011;4351;51.422;6.794;2023-09-19T09:39:50;14.83;;;2.70;;
8626;SDS011;4351;51.422;6.794;2023-09-19T09:42:31;9.03;;;2.47;;
8626;SDS011;4351;51.422;6.794;2023-09-19T09:45:14;7.97;;;2.37;;
8626;SDS011;4351;51.422;6.794;2023-09-19T09:47:43;10.90;;;2.20;;
8626;SDS011;4351;51.422;6.794;2023-09-19T09:50:25;13.30;;;2.60;;
8626;SDS011;4351;51.422;6.794;2023-09-19T09:52:55;11.53;;;2.83;;
8626;SDS011;4351;51.422;6.794;2023-09-19T09:58:20;10.83;;;2.50;;
8626;SDS011;4351;51.422;6.794;2023-09-19T10:00:52;10.13;;;2.57;;
8626;SDS011;4351;51.422;6.794;2023-09-19T10:03:23;12.17;;;2.83;;
8626;SDS011;4351;51.422;6.794;2023-09-19T10:05:59;10.67;;;2.40;;
8626;SDS011;4351;51.422;6.794;2023-09-19T10:08:29;13.87;;;3.13;;
8626;SDS011;4351;51.422;6.794;2023-09-19T10:10:58;11.53;;;3.03;;
8626;SDS011;4351;51.422;6.794;2023-09-19T10:13:33;13.90;;;3.33;;
8626;SDS011;4351;51.422;6.794;2023-09-19T10:16:04;14.33;;;3.73;;
8626;SDS011;4351;51.422;6.794;2023-09-19T10:18:38;10.67;;;2.80;;
8626;SDS011;4351;51.422;6.794;2023-09-19T10:21:11;8.23;;;2.30;;
8626;SDS011;4351;51.422;6.794;2023-09-19T10:23:39;11.87;;;3.00;;
8626;SDS011;4351;51.422;6.794;2023-09-19T10:26:09;11.40;;;2.97;;
8626;SDS011;4351;51.422;6.794;2023-09-19T10:28:38;9.43;;;2.50;;
8626;SDS011;4351;51.422;6.794;2023-09-19T10:31:06;10.60;;;2.80;;
8626;SDS011;4351;51.422;6.794;2023-09-19T10:33:36;9.57;;;2.40;;
8626;SDS011;4351;51.422;6.794;2023-09-19T10:36:05;12.13;;;2.83;;
8626;SDS011;4351;51.422;6.794;2023-09-19T10:38:34;6.17;;;2.30;;
8626;SDS011;4351;51.422;6.794;2023-09-19T10:41:05;9.93;;;2.30;;
8626;SDS011;4351;51.422;6.794;2023-09-19T10:43:33;10.93;;;2.40;;
8626;SDS011;4351;51.422;6.794;2023-09-19T10:46:08;8.13;;;2.40;;
8626;SDS011;4351;51.422;6.794;2023-09-19T10:48:37;11.57;;;2.50;;
8626;SDS011;4351;51.422;6.794;2023-09-19T10:51:07;10.97;;;2.37;;
8626;SDS011;4351;51.422;6.794;2023-09-19T10:53:43;12.77;;;2.77;;
8626;SDS011;4351;51.422;6.794;2023-09-19T10:56:16;8.47;;;2.10;;
8626;SDS011;4351;51.422;6.794;2023-09-19T10:58:47;5.83;;;2.40;;
8626;SDS011;4351;51.422;6.794;2023-09-19T11:01:17;11.43;;;2.90;;
8626;SDS011;4351;51.422;6.794;2023-09-19T11:03:51;13.00;;;2.67;;
8626;SDS011;4351;51.422;6.794;2023-09-19T11:06:42;9.87;;;2.03;;
8626;SDS011;4351;51.422;6.794;2023-09-19T11:09:20;9.30;;;2.77;;
8626;SDS011;4351;51.422;6.794;2023-09-19T11:11:52;8.83;;;2.10;;
8626;SDS011;4351;51.422;6.794;2023-09-19T11:14:30;8.60;;;2.60;;
8626;SDS011;4351;51.422;6.794;2023-09-19T11:28:31;7.80;;;2.30;;
8626;SDS011;4351;51.422;6.794;2023-09-19T11:31:00;8.17;;;2.43;;
8626;SDS011;4351;51.422;6.794;2023-09-19T11:33:47;15.10;;;2.93;;
8626;SDS011;4351;51.422;6.794;2023-09-19T11:36:16;9.53;;;2.40;;
8626;SDS011;4351;51.422;6.794;2023-09-19T11:38:57;6.60;;;2.30;;
8626;SDS011;4351;51.422;6.794;2023-09-19T11:41:36;9.03;;;2.60;;
8626;SDS011;4351;51.422;6.794;2023-09-19T11:46:53;8.80;;;2.13;;
8626;SDS011;4351;51.422;6.794;2023-09-19T11:49:25;11.57;;;2.33;;
8626;SDS011;4351;51.422;6.794;2023-09-19T11:51:56;10.20;;;2.50;;
8626;SDS011;4351;51.422;6.794;2023-09-19T11:54:24;9.57;;;2.53;;
8626;SDS011;4351;51.422;6.794;2023-09-19T11:56:54;13.30;;;2.60;;
8626;SDS011;4351;51.422;6.794;2023-09-19T11:59:23;8.50;;;2.40;;
8626;SDS011;4351;51.422;6.794;2023-09-19T12:02:00;7.87;;;2.10;;
8626;SDS011;4351;51.422;6.794;2023-09-19T12:04:35;10.00;;;1.93;;
8626;SDS011;4351;51.422;6.794;2023-09-19T12:07:05;7.47;;;2.00;;
8626;SDS011;4351;51.422;6.794;2023-09-19T12:09:38;8.93;;;2.40;;
8626;SDS011;4351;51.422;6.794;2023-09-19T12:12:07;5.57;;;2.10;;
8626;SDS011;4351;51.422;6.794;2023-09-19T12:14:35;10.10;;;2.50;;
8626;SDS011;4351;51.422;6.794;2023-09-19T12:17:05;7.43;;;2.10;;
8626;SDS011;4351;51.422;6.794;2023-09-19T12:19:32;9.87;;;2.17;;
8626;SDS011;4351;51.422;6.794;2023-09-19T12:22:01;6.47;;;2.07;;
8626;SDS011;4351;51.422;6.794;2023-09-19T12:24:31;8.40;;;2.43;;
8626;SDS011;4351;51.422;6.794;2023-09-19T12:27:02;8.10;;;2.10;;
8626;SDS011;4351;51.422;6.794;2023-09-19T12:29:41;7.83;;;2.20;;
8626;SDS011;4351;51.422;6.794;2023-09-19T12:32:10;4.37;;;1.90;;
8626;SDS011;4351;51.422;6.794;2023-09-19T12:34:39;8.83;;;1.93;;
8626;SDS011;4351;51.422;6.794;2023-09-19T12:37:10;7.50;;;2.23;;
8626;SDS011;4351;51.422;6.794;2023-09-19T12:39:50;10.73;;;2.30;;
8626;SDS011;4351;51.422;6.794;2023-09-19T12:42:20;6.20;;;1.90;;
8626;SDS011;4351;51.422;6.794;2023-09-19T12:44:50;5.43;;;2.00;;
8626;SDS011;4351;51.422;6.794;2023-09-19T12:47:23;8.23;;;2.23;;
8626;SDS011;4351;51.422;6.794;2023-09-19T12:50:09;6.40;;;1.87;;
8626;SDS011;4351;51.422;6.794;2023-09-19T12:52:40;6.93;;;1.77;;
8626;SDS011;4351;51.422;6.794;2023-09-19T12:55:19;7.27;;;2.37;;
8626;SDS011;4351;51.422;6.794;2023-09-19T12:57:55;9.57;;;2.50;;
8626;SDS011;4351;51.422;6.794;2023-09-19T13:00:30;9.07;;;2.20;;
8626;SDS011;4351;51.422;6.794;2023-09-19T13:05:54;6.20;;;2.20;;
8626;SDS011;4351;51.422;6.794;2023-09-19T13:08:25;6.23;;;1.70;;
8626;SDS011;4351;51.422;6.794;2023-09-19T13:11:04;11.07;;;2.53;;
8626;SDS011;4351;51.422;6.794;2023-09-19T13:13:37;9.17;;;1.93;;
8626;SDS011;4351;51.422;6.794;2023-09-19T13:16:10;10.30;;;1.70;;
8626;SDS011;4351;51.422;6.794;2023-09-19T13:18:41;7.77;;;1.90;;
8626;SDS011;4351;51.422;6.794;2023-09-19T13:21:14;5.07;;;1.43;;
8626;SDS011;4351;51.422;6.794;2023-09-19T13:23:51;9.43;;;2.20;;
8626;SDS011;4351;51.422;6.794;2023-09-19T13:26:20;5.07;;;1.63;;
8626;SDS011;4351;51.422;6.794;2023-09-19T13:28:49;6.83;;;1.47;;
8626;SDS011;4351;51.422;6.794;2023-09-19T13:31:19;6.47;;;2.00;;
8626;SDS011;4351;51.422;6.794;2023-09-19T13:33:48;4.50;;;1.73;;
8626;SDS011;4351;51.422;6.794;2023-09-19T13:36:18;6.10;;;1.80;;
8626;SDS011;4351;51.422;6.794;2023-09-19T13:38:46;5.87;;;1.50;;
8626;SDS011;4351;51.422;6.794;2023-09-19T13:41:16;5.97;;;1.83;;
8626;SDS011;4351;51.422;6.794;2023-09-19T13:43:44;10.53;;;2.67;;
8626;SDS011;4351;51.422;6.794;2023-09-19T13:46:15;9.97;;;2.47;;
8626;SDS011;4351;51.422;6.794;2023-09-19T13:48:44;8.47;;;2.20;;
8626;SDS011;4351;51.422;6.794;2023-09-19T13:51:12;7.23;;;1.63;;
8626;SDS011;4351;51.422;6.794;2023-09-19T13:53:42;6.10;;;1.30;;
8626;SDS011;4351;51.422;6.794;2023-09-19T13:56:10;5.33;;;1.33;;
8626;SDS011;4351;51.422;6.794;2023-09-19T13:58:38;5.37;;;1.50;;
8626;SDS011;4351;51.422;6.794;2023-09-19T14:01:09;5.13;;;1.40;;
8626;SDS011;4351;51.422;6.794;2023-09-19T14:03:39;4.87;;;1.20;;
8626;SDS011;4351;51.422;6.794;2023-09-19T14:06:07;4.93;;;1.00;;
8626;SDS011;4351;51.422;6.794;2023-09-19T14:08:35;4.97;;;1.37;;
8626;SDS011;4351;51.422;6.794;2023-09-19T14:11:06;5.80;;;1.20;;
8626;SDS011;4351;51.422;6.794;2023-09-19T14:13:34;7.73;;;1.63;;
8626;SDS011;4351;51.422;6.794;2023-09-19T14:16:03;4.40;;;1.13;;
8626;SDS011;4351;51.422;6.794;2023-09-19T14:18:31;7.60;;;2.07;;
8626;SDS011;4351;51.422;6.794;2023-09-19T14:21:01;4.77;;;1.70;;
8626;SDS011;4351;51.422;6.794;2023-09-19T14:23:34;6.13;;;2.00;;
8626;SDS011;4351;51.422;6.794;2023-09-19T14:26:02;5.00;;;1.77;;
8626;SDS011;4351;51.422;6.794;2023-09-19T14:28:31;7.33;;;1.67;;
8626;SDS011;4351;51.422;6.794;2023-09-19T14:31:03;6.17;;;2.30;;
8626;SDS011;4351;51.422;6.794;2023-09-19T14:33:31;6.33;;;1.73;;
8626;SDS011;4351;51.422;6.794;2023-09-19T14:36:01;7.40;;;1.60;;
8626;SDS011;4351;51.422;6.794;2023-09-19T14:38:29;6.17;;;1.37;;
8626;SDS011;4351;51.422;6.794;2023-09-19T14:41:00;7.23;;;1.40;;
8626;SDS011;4351;51.422;6.794;2023-09-19T14:43:28;8.13;;;1.80;;
8626;SDS011;4351;51.422;6.794;2023-09-19T14:46:02;3.77;;;1.27;;
8626;SDS011;4351;51.422;6.794;2023-09-19T14:48:29;4.67;;;1.43;;
8626;SDS011;4351;51.422;6.794;2023-09-19T14:51:01;4.93;;;1.70;;
8626;SDS011;4351;51.422;6.794;2023-09-19T14:53:29;4.77;;;1.27;;
8626;SDS011;4351;51.422;6.794;2023-09-19T14:55:59;4.20;;;1.10;;
8626;SDS011;4351;51.422;6.794;2023-09-19T14:58:28;4.43;;;1.40;;
8626;SDS011;4351;51.422;6.794;2023-09-19T15:01:03;5.57;;;1.33;;
8626;SDS011;4351;51.422;6.794;2023-09-19T15:03:31;3.27;;;1.00;;
8626;SDS011;4351;51.422;6.794;2023-09-19T15:06:00;2.03;;;0.80;;
8626;SDS011;4351;51.422;6.794;2023-09-19T15:08:28;5.03;;;0.97;;
8626;SDS011;4351;51.422;6.794;2023-09-19T15:10:56;2.77;;;0.97;;
8626;SDS011;4351;51.422;6.794;2023-09-19T15:13:24;5.37;;;1.00;;
8626;SDS011;4351;51.422;6.794;2023-09-19T15:15:58;2.70;;;0.90;;
8626;SDS011;4351;51.422;6.794;2023-09-19T15:18:27;2.37;;;0.90;;
8626;SDS011;4351;51.422;6.794;2023-09-19T15:20:55;3.80;;;1.00;;
8626;SDS011;4351;51.422;6.794;2023-09-19T15:23:23;5.10;;;1.00;;
8626;SDS011;4351;51.422;6.794;2023-09-19T15:25:58;6.07;;;0.90;;
8626;SDS011;4351;51.422;6.794;2023-09-19T15:28:26;2.27;;;0.80;;
8626;SDS011;4351;51.422;6.794;2023-09-19T15:30:57;7.27;;;1.13;;
8626;SDS011;4351;51.422;6.794;2023-09-19T15:33:25;5.17;;;1.27;;
8626;SDS011;4351;51.422;6.794;2023-09-19T15:36:01;3.47;;;1.10;;
8626;SDS011;4351;51.422;6.794;2023-09-19T15:38:30;3.20;;;0.93;;
8626;SDS011;4351;51.422;6.794;2023-09-19T15:40:58;3.40;;;1.00;;
8626;SDS011;4351;51.422;6.794;2023-09-19T15:43:26;3.43;;;1.00;;
8626;SDS011;4351;51.422;6.794;2023-09-19T15:45:53;3.13;;;0.87;;
8626;SDS011;4351;51.422;6.794;2023-09-19T15:48:21;1.70;;;1.03;;
8626;SDS011;4351;51.422;6.794;2023-09-19T15:50:50;3.97;;;0.97;;
8626;SDS011;4351;51.422;6.794;2023-09-19T15:53:19;2.77;;;0.93;;
8626;SDS011;4351;51.422;6.794;2023-09-19T15:55:47;2.63;;;0.97;;
8626;SDS011;4351;51.422;6.794;2023-09-19T15:58:15;3.67;;;0.90;;
8626;SDS011;4351;51.422;6.794;2023-09-19T16:00:43;3.47;;;1.00;;
8626;SDS011;4351;51.422;6.794;2023-09-19T16:03:11;5.50;;;0.97;;
8626;SDS011;4351;51.422;6.794;2023-09-19T16:05:39;3.43;;;0.77;;
8626;SDS011;4351;51.422;6.794;2023-09-19T16:08:07;3.97;;;0.97;;
8626;SDS011;4351;51.422;6.794;2023-09-19T16:10:36;3.77;;;1.10;;
8626;SDS011;4351;51.422;6.794;2023-09-19T16:13:05;3.97;;;0.90;;